createdAt,value
2023-05-25T00:02:04.968Z,2.90
2023-05-25T00:04:37.126Z,2.80
2023-05-25T00:07:05.057Z,2.75
2023-05-25T00:09:32.918Z,2.53
2023-05-25T00:12:01.024Z,2.50
2023-05-25T00:14:28.550Z,2.75
2023-05-25T00:16:56.457Z,2.50
2023-05-25T00:19:25.054Z,2.50
2023-05-25T00:21:52.588Z,2.90
2023-05-25T00:24:20.622Z,2.85
2023-05-25T00:26:48.193Z,2.80
2023-05-25T00:29:15.892Z,2.70
2023-05-25T00:31:43.752Z,2.95
2023-05-25T00:34:11.374Z,2.58
2023-05-25T00:36:38.887Z,3.05
2023-05-25T00:39:06.760Z,2.85
2023-05-25T00:41:34.970Z,2.90
2023-05-25T00:44:02.616Z,2.45
2023-05-25T00:46:31.554Z,2.80
2023-05-25T00:48:59.098Z,2.85
2023-05-25T00:51:27.419Z,3.05
2023-05-25T00:53:55.269Z,2.97
2023-05-25T00:56:28.588Z,3.05
2023-05-25T00:59:00.692Z,3.20
2023-05-25T01:01:33.536Z,3.17
2023-05-25T01:04:03.312Z,2.67
2023-05-25T01:06:33.475Z,2.80
2023-05-25T01:09:04.677Z,2.80
2023-05-25T01:11:36.136Z,2.90
2023-05-25T01:14:04.136Z,2.87
2023-05-25T01:16:33.017Z,3.00
2023-05-25T01:19:02.963Z,3.03
2023-05-25T01:21:46.106Z,2.80
2023-05-25T01:24:25.996Z,3.30
2023-05-25T01:27:17.073Z,3.40
2023-05-25T01:29:46.876Z,3.30
2023-05-25T01:32:16.931Z,3.57
2023-05-25T01:34:47.433Z,3.30
2023-05-25T01:37:17.522Z,3.40
2023-05-25T01:39:45.214Z,3.17
2023-05-25T01:42:12.877Z,3.20
2023-05-25T01:44:41.228Z,3.30
2023-05-25T01:47:23.736Z,3.03
2023-05-25T01:50:30.202Z,3.70
2023-05-25T01:53:04.351Z,3.33
2023-05-25T01:55:39.764Z,3.00
2023-05-25T01:58:10.810Z,3.20
2023-05-25T02:00:40.712Z,3.10
2023-05-25T02:03:10.211Z,3.33
2023-05-25T02:05:38.802Z,3.83
2023-05-25T02:08:07.785Z,3.22
2023-05-25T02:10:35.631Z,3.47
2023-05-25T02:13:03.184Z,3.35
2023-05-25T02:15:32.728Z,3.42
2023-05-25T02:18:01.072Z,3.78
2023-05-25T02:20:29.614Z,4.32
2023-05-25T02:22:57.454Z,3.90
2023-05-25T02:25:25.018Z,3.53
2023-05-25T02:27:52.894Z,3.92
2023-05-25T02:30:20.983Z,3.65
2023-05-25T02:32:48.589Z,4.45
2023-05-25T02:35:16.632Z,3.97
2023-05-25T02:37:44.179Z,3.62
2023-05-25T02:40:12.551Z,4.03
2023-05-25T02:42:40.626Z,4.15
2023-05-25T02:45:10.849Z,4.03
2023-05-25T02:47:39.391Z,3.63
2023-05-25T02:50:07.747Z,3.62
2023-05-25T02:52:36.491Z,3.60
2023-05-25T02:55:04.428Z,3.97
2023-05-25T02:57:32.741Z,4.28
2023-05-25T03:00:00.655Z,4.00
2023-05-25T03:02:29.140Z,4.03
2023-05-25T03:04:57.320Z,4.30
2023-05-25T03:07:26.827Z,4.03
2023-05-25T03:09:54.605Z,4.12
2023-05-25T03:12:22.682Z,4.43
2023-05-25T03:14:50.899Z,4.35
2023-05-25T03:17:18.944Z,4.00
2023-05-25T03:19:46.964Z,3.85
2023-05-25T03:22:14.660Z,4.25
2023-05-25T03:24:45.144Z,4.60
2023-05-25T03:27:13.095Z,3.87
2023-05-25T03:29:40.780Z,4.45
2023-05-25T03:32:09.522Z,4.50
2023-05-25T03:34:37.971Z,4.00
2023-05-25T03:37:06.282Z,4.40
2023-05-25T03:39:33.886Z,4.15
2023-05-25T03:42:02.956Z,4.00
2023-05-25T03:44:30.546Z,4.20
2023-05-25T03:46:58.674Z,4.30
2023-05-25T03:49:28.072Z,4.50
2023-05-25T03:52:00.229Z,4.05
2023-05-25T03:54:28.216Z,4.90
2023-05-25T03:56:56.876Z,4.45
2023-05-25T03:59:25.720Z,4.78
2023-05-25T04:01:53.601Z,4.53
2023-05-25T04:04:22.086Z,3.97
2023-05-25T04:06:49.817Z,4.47
2023-05-25T04:09:17.848Z,4.07
2023-05-25T04:11:46.460Z,4.60
2023-05-25T04:14:14.073Z,5.20
2023-05-25T04:16:42.072Z,4.55
2023-05-25T04:19:10.317Z,4.43
2023-05-25T04:21:38.148Z,4.43
2023-05-25T04:24:07.798Z,5.22
2023-05-25T04:26:35.868Z,4.73
2023-05-25T04:29:03.635Z,4.90
2023-05-25T04:31:31.521Z,4.20
2023-05-25T04:34:00.165Z,4.97
2023-05-25T04:36:28.094Z,4.78
2023-05-25T04:38:55.689Z,4.43
2023-05-25T04:41:25.885Z,4.37
2023-05-25T04:44:07.998Z,4.65
2023-05-25T04:46:39.228Z,5.05
2023-05-25T04:49:10.635Z,4.53
2023-05-25T04:51:38.604Z,4.57
2023-05-25T04:54:06.253Z,4.93
2023-05-25T04:56:34.002Z,4.82
2023-05-25T04:59:01.851Z,4.50
2023-05-25T05:01:29.641Z,4.90
2023-05-25T05:03:57.852Z,4.70
2023-05-25T05:06:26.442Z,4.37
2023-05-25T05:08:54.048Z,4.70
2023-05-25T05:11:23.641Z,5.10
2023-05-25T05:13:52.014Z,4.62
2023-05-25T05:16:19.714Z,4.67
2023-05-25T05:18:48.426Z,4.20
2023-05-25T05:21:16.381Z,5.00
2023-05-25T05:23:44.276Z,4.78
2023-05-25T05:26:15.435Z,4.75
2023-05-25T05:28:43.399Z,4.27
2023-05-25T05:31:12.460Z,4.20
2023-05-25T05:33:40.540Z,4.55
2023-05-25T05:36:09.147Z,4.70
2023-05-25T05:38:38.206Z,4.07
2023-05-25T05:41:13.913Z,4.37
2023-05-25T05:43:43.645Z,4.53
2023-05-25T05:46:11.589Z,4.25
2023-05-25T05:48:40.353Z,4.70
2023-05-25T05:51:07.900Z,5.18
2023-05-25T05:53:35.889Z,5.30
2023-05-25T05:56:04.183Z,4.70
2023-05-25T05:58:32.609Z,5.20
2023-05-25T06:01:01.597Z,4.40
2023-05-25T06:03:29.493Z,5.43
2023-05-25T06:05:57.393Z,5.33
2023-05-25T06:08:25.264Z,5.40
2023-05-25T06:10:53.183Z,5.70
2023-05-25T06:13:20.879Z,5.15
2023-05-25T06:15:48.412Z,5.90
2023-05-25T06:18:16.727Z,5.93
2023-05-25T06:20:44.857Z,5.53
2023-05-25T06:23:14.178Z,5.90
2023-05-25T06:25:42.285Z,5.68
2023-05-25T06:28:10.316Z,5.05
2023-05-25T06:30:37.976Z,5.47
2023-05-25T06:33:06.485Z,6.10
2023-05-25T06:35:34.096Z,5.47
2023-05-25T06:38:01.881Z,5.95
2023-05-25T06:40:29.750Z,6.05
2023-05-25T06:42:57.298Z,5.93
2023-05-25T06:45:26.457Z,5.95
2023-05-25T06:47:54.370Z,6.20
2023-05-25T06:50:22.410Z,6.40
2023-05-25T06:52:49.985Z,6.03
2023-05-25T06:55:17.849Z,6.03
2023-05-25T06:57:46.201Z,5.85
2023-05-25T07:00:14.547Z,5.97
2023-05-25T07:02:42.395Z,6.20
2023-05-25T07:05:10.216Z,5.40
2023-05-25T07:07:37.945Z,6.27
2023-05-25T07:10:06.925Z,6.28
2023-05-25T07:12:34.461Z,6.72
2023-05-25T07:15:02.059Z,6.45
2023-05-25T07:17:31.615Z,6.53
2023-05-25T07:19:59.413Z,6.77
2023-05-25T07:22:26.981Z,7.10
2023-05-25T07:24:54.889Z,7.03
2023-05-25T07:27:22.484Z,6.37
2023-05-25T07:29:50.041Z,7.12
2023-05-25T07:32:17.862Z,6.63
2023-05-25T07:34:45.580Z,6.62
2023-05-25T07:37:13.122Z,7.00
2023-05-25T07:39:41.669Z,6.62
2023-05-25T07:42:09.347Z,7.72
2023-05-25T07:44:36.877Z,7.07
2023-05-25T07:47:07.033Z,7.65
2023-05-25T07:49:35.015Z,7.45
2023-05-25T07:52:04.425Z,7.18
2023-05-25T07:54:32.690Z,7.43
2023-05-25T07:57:01.321Z,8.33
2023-05-25T07:59:28.876Z,7.43
2023-05-25T08:01:56.803Z,7.80
2023-05-25T08:04:24.769Z,7.78
2023-05-25T08:06:52.561Z,7.53
2023-05-25T08:09:20.134Z,6.40
2023-05-25T08:11:48.073Z,6.87
2023-05-25T08:14:16.940Z,6.82
2023-05-25T08:16:44.618Z,7.40
2023-05-25T08:19:12.551Z,7.05
2023-05-25T08:21:40.559Z,7.23
2023-05-25T08:24:08.613Z,6.80
2023-05-25T08:26:53.280Z,6.95
2023-05-25T08:29:22.231Z,7.75
2023-05-25T08:31:51.343Z,8.15
2023-05-25T08:34:19.080Z,7.20
2023-05-25T08:36:46.910Z,7.53
2023-05-25T08:39:15.892Z,7.37
2023-05-25T08:41:45.097Z,8.43
2023-05-25T08:44:14.827Z,8.20
2023-05-25T08:46:42.892Z,8.83
2023-05-25T08:49:15.185Z,8.35
2023-05-25T08:51:53.516Z,7.68
2023-05-25T08:54:31.991Z,8.27
2023-05-25T08:57:20.941Z,8.02
2023-05-25T09:00:04.679Z,7.93
2023-05-25T09:02:44.441Z,7.90
2023-05-25T09:05:13.967Z,7.07
2023-05-25T09:07:43.912Z,6.72
2023-05-25T09:10:12.886Z,7.07
2023-05-25T09:12:42.171Z,7.30
2023-05-25T09:15:11.430Z,8.15
2023-05-25T09:17:41.360Z,8.02
2023-05-25T09:20:15.807Z,6.75
2023-05-25T09:22:44.480Z,7.53
2023-05-25T09:25:15.402Z,6.73
2023-05-25T09:27:43.262Z,7.15
2023-05-25T09:30:11.454Z,7.57
2023-05-25T09:32:39.700Z,6.87
2023-05-25T09:35:12.080Z,7.30
2023-05-25T09:37:44.424Z,7.07
2023-05-25T09:40:12.488Z,7.40
2023-05-25T09:42:41.318Z,7.60
2023-05-25T09:45:09.294Z,7.43
2023-05-25T09:47:38.289Z,6.82
2023-05-25T09:50:07.753Z,7.17
2023-05-25T09:52:36.784Z,6.97
2023-05-25T09:55:04.743Z,7.10
2023-05-25T09:57:32.580Z,7.03
2023-05-25T10:00:00.339Z,7.50
2023-05-25T10:02:28.521Z,7.13
2023-05-25T10:04:56.764Z,7.22
2023-05-25T10:07:26.124Z,7.10
2023-05-25T10:09:56.122Z,6.18
2023-05-25T10:12:25.382Z,6.53
2023-05-25T10:14:55.314Z,7.13
2023-05-25T10:17:24.680Z,6.35
2023-05-25T10:19:59.955Z,6.78
2023-05-25T10:22:40.481Z,7.03
2023-05-25T10:25:26.647Z,6.68
2023-05-25T10:28:02.195Z,6.57
2023-05-25T10:30:30.680Z,6.55
2023-05-25T10:32:58.244Z,7.30
2023-05-25T10:35:25.865Z,6.35
2023-05-25T10:37:54.779Z,7.10
2023-05-25T10:40:23.364Z,6.40
2023-05-25T10:42:54.188Z,5.87
2023-05-25T10:45:22.848Z,6.50
2023-05-25T10:47:51.286Z,6.32
2023-05-25T10:50:29.419Z,6.12
2023-05-25T10:53:02.880Z,6.17
2023-05-25T10:55:49.071Z,5.78
2023-05-25T10:58:18.309Z,5.78
2023-05-25T11:01:09.208Z,6.12
2023-05-25T11:03:56.849Z,5.68
2023-05-25T11:06:47.208Z,5.70
2023-05-25T11:09:31.069Z,5.55
2023-05-25T11:11:59.839Z,5.85
2023-05-25T11:14:30.808Z,5.95
2023-05-25T11:17:10.665Z,5.65
2023-05-25T11:19:41.569Z,6.37
2023-05-25T11:22:23.137Z,6.00
2023-05-25T11:24:52.925Z,5.82
2023-05-25T11:27:45.842Z,5.03
2023-05-25T11:30:18.042Z,5.57
2023-05-25T11:32:51.642Z,5.10
2023-05-25T11:35:19.869Z,6.43
2023-05-25T11:37:51.058Z,5.35
2023-05-25T11:40:22.686Z,5.45
2023-05-25T11:42:52.831Z,6.18
2023-05-25T11:45:22.564Z,5.40
2023-05-25T11:47:50.207Z,6.20
2023-05-25T11:50:17.912Z,5.95
2023-05-25T11:52:45.844Z,5.80
2023-05-25T11:55:14.684Z,6.00
2023-05-25T11:57:42.531Z,5.50
2023-05-25T12:00:11.555Z,5.47
2023-05-25T12:02:44.537Z,5.87
2023-05-25T12:05:12.263Z,5.35
2023-05-25T12:07:46.744Z,6.03
2023-05-25T12:10:16.632Z,5.40
2023-05-25T12:12:52.110Z,5.45
2023-05-25T12:15:24.367Z,5.37
2023-05-25T12:17:54.653Z,5.15
2023-05-25T12:20:22.817Z,5.75
2023-05-25T12:22:51.066Z,6.40
2023-05-25T12:25:22.046Z,5.82
2023-05-25T12:27:49.848Z,5.70
2023-05-25T12:30:17.370Z,6.00
2023-05-25T12:33:04.565Z,6.03
2023-05-25T12:35:53.490Z,5.43
2023-05-25T12:38:22.102Z,5.40
2023-05-25T12:41:06.081Z,4.95
2023-05-25T12:43:43.115Z,4.97
2023-05-25T12:46:10.952Z,5.47
2023-05-25T12:48:38.862Z,5.60
2023-05-25T12:51:06.423Z,4.85
2023-05-25T12:53:55.241Z,5.50
2023-05-25T12:56:23.119Z,5.72
2023-05-25T12:58:50.777Z,5.53
2023-05-25T13:01:18.496Z,6.03
2023-05-25T13:03:46.399Z,5.47
2023-05-25T13:06:13.946Z,5.28
2023-05-25T13:08:41.757Z,5.72
2023-05-25T13:11:09.812Z,5.78
2023-05-25T13:13:37.503Z,4.77
2023-05-25T13:16:05.285Z,5.95
2023-05-25T13:18:33.170Z,5.70
2023-05-25T13:21:01.074Z,6.00
2023-05-25T13:23:28.912Z,4.87
2023-05-25T13:25:56.753Z,5.07
2023-05-25T13:28:24.407Z,5.68
2023-05-25T13:30:51.958Z,5.62
2023-05-25T13:33:20.003Z,5.65
2023-05-25T13:36:08.035Z,5.62
2023-05-25T13:38:37.317Z,5.90
2023-05-25T13:41:05.439Z,5.90
2023-05-25T13:43:33.089Z,5.82
2023-05-25T13:46:01.010Z,5.65
2023-05-25T13:48:30.067Z,5.87
2023-05-25T13:50:57.736Z,5.80
2023-05-25T13:53:25.679Z,5.80
2023-05-25T13:55:53.379Z,5.70
2023-05-25T13:58:21.870Z,5.82
2023-05-25T14:00:49.767Z,6.35
2023-05-25T14:03:17.790Z,5.57
2023-05-25T14:05:45.647Z,5.87
2023-05-25T14:08:13.898Z,6.55
2023-05-25T14:10:44.273Z,5.82
2023-05-25T14:13:12.081Z,6.32
2023-05-25T14:15:39.645Z,5.37
2023-05-25T14:18:07.578Z,5.55
2023-05-25T14:20:37.336Z,5.53
2023-05-25T14:23:04.896Z,5.68
2023-05-25T14:25:32.752Z,5.70
2023-05-25T14:28:00.360Z,5.77
2023-05-25T14:30:27.921Z,5.90
2023-05-25T14:32:55.835Z,5.65
2023-05-25T14:35:23.845Z,5.28
2023-05-25T14:37:51.540Z,5.40
2023-05-25T14:40:19.822Z,5.43
2023-05-25T14:42:47.435Z,5.15
2023-05-25T14:45:16.131Z,5.60
2023-05-25T14:47:44.558Z,5.70
2023-05-25T14:50:12.160Z,5.97
2023-05-25T14:52:39.756Z,5.57
2023-05-25T14:55:09.162Z,5.65
2023-05-25T14:57:36.819Z,6.05
2023-05-25T15:00:04.819Z,5.43
2023-05-25T15:02:32.972Z,5.55
2023-05-25T15:05:00.895Z,5.10
2023-05-25T15:07:28.461Z,5.40
2023-05-25T15:09:56.298Z,5.35
2023-05-25T15:12:23.867Z,5.50
2023-05-25T15:14:51.382Z,5.47
2023-05-25T15:17:19.241Z,5.33
2023-05-25T15:19:46.815Z,4.65
2023-05-25T15:22:14.394Z,5.85
2023-05-25T15:24:42.855Z,5.47
2023-05-25T15:27:10.596Z,5.03
2023-05-25T15:29:38.117Z,5.03
2023-05-25T15:32:08.032Z,5.53
2023-05-25T15:34:36.766Z,5.95
2023-05-25T15:37:04.443Z,5.50
2023-05-25T15:39:32.283Z,5.53
2023-05-25T15:41:59.833Z,5.37
2023-05-25T15:44:27.435Z,5.53
2023-05-25T15:46:55.301Z,5.82
2023-05-25T15:49:22.862Z,5.37
2023-05-25T15:51:53.292Z,5.55
2023-05-25T15:54:21.150Z,5.50
2023-05-25T15:56:48.752Z,5.50
2023-05-25T15:59:16.326Z,5.68
2023-05-25T16:01:44.268Z,5.97
2023-05-25T16:04:12.259Z,6.20
2023-05-25T16:06:39.853Z,5.80
2023-05-25T16:09:07.689Z,5.50
2023-05-25T16:11:35.647Z,5.68
2023-05-25T16:14:03.168Z,5.40
2023-05-25T16:16:30.861Z,6.03
2023-05-25T16:18:58.986Z,5.80
2023-05-25T16:21:26.842Z,5.20
2023-05-25T16:23:54.426Z,5.25
2023-05-25T16:26:22.572Z,6.00
2023-05-25T16:28:50.168Z,5.40
2023-05-25T16:31:17.771Z,5.10
2023-05-25T16:33:46.011Z,5.05
2023-05-25T16:36:14.287Z,5.53
2023-05-25T16:38:41.930Z,5.53
2023-05-25T16:41:10.093Z,5.35
2023-05-25T16:43:38.294Z,5.27
2023-05-25T16:46:06.761Z,5.05
2023-05-25T16:48:34.738Z,5.78
2023-05-25T16:51:02.473Z,5.87
2023-05-25T16:53:30.028Z,5.65
2023-05-25T16:55:57.947Z,5.33
2023-05-25T16:58:25.605Z,5.57
2023-05-25T17:00:53.210Z,5.35
2023-05-25T17:03:21.138Z,5.05
2023-05-25T17:05:48.778Z,5.22
2023-05-25T17:08:16.394Z,5.03
2023-05-25T17:10:48.321Z,4.90
2023-05-25T17:13:15.856Z,5.25
2023-05-25T17:15:43.552Z,5.62
2023-05-25T17:18:14.422Z,5.28
2023-05-25T17:20:42.098Z,5.50
2023-05-25T17:23:09.757Z,5.68
2023-05-25T17:25:39.441Z,5.70
2023-05-25T17:28:06.982Z,4.78
2023-05-25T17:30:34.570Z,5.15
2023-05-25T17:33:02.462Z,4.80
2023-05-25T17:35:30.629Z,5.57
2023-05-25T17:37:58.161Z,5.25
2023-05-25T17:40:26.035Z,4.90
2023-05-25T17:42:54.156Z,5.60
2023-05-25T17:45:21.935Z,5.57
2023-05-25T17:47:50.187Z,4.65
2023-05-25T17:50:17.803Z,5.12
2023-05-25T17:52:45.387Z,4.93
2023-05-25T17:55:13.256Z,5.22
2023-05-25T17:57:41.260Z,5.20
2023-05-25T18:00:09.437Z,4.65
2023-05-25T18:02:39.977Z,5.78
2023-05-25T18:05:08.113Z,5.45
2023-05-25T18:07:35.656Z,5.53
2023-05-25T18:10:03.289Z,5.30
2023-05-25T18:12:31.409Z,5.62
2023-05-25T18:14:58.875Z,5.60
2023-05-25T18:17:26.938Z,5.80
2023-05-25T18:19:55.118Z,5.72
2023-05-25T18:22:22.704Z,5.60
2023-05-25T18:24:50.728Z,5.40
2023-05-25T18:27:18.603Z,6.03
2023-05-25T18:29:46.134Z,6.35
2023-05-25T18:32:13.685Z,6.18
2023-05-25T18:34:42.134Z,5.87
2023-05-25T18:37:09.677Z,8.13
2023-05-25T18:39:37.225Z,7.12
2023-05-25T18:42:05.326Z,6.95
2023-05-25T18:44:33.018Z,6.93
2023-05-25T18:47:00.720Z,6.80
2023-05-25T18:49:33.023Z,6.85
2023-05-25T18:52:01.675Z,7.10
2023-05-25T18:54:29.809Z,7.03
2023-05-25T18:56:57.491Z,6.43
2023-05-25T18:59:25.048Z,6.27
2023-05-25T19:01:52.997Z,6.72
2023-05-25T19:04:20.805Z,6.10
2023-05-25T19:06:48.505Z,6.12
2023-05-25T19:09:16.421Z,6.75
2023-05-25T19:11:44.084Z,6.00
2023-05-25T19:14:11.707Z,5.47
2023-05-25T19:16:39.663Z,5.10
2023-05-25T19:19:07.264Z,5.32
2023-05-25T19:21:34.920Z,4.87
2023-05-25T19:24:02.862Z,4.93
2023-05-25T19:26:30.686Z,4.80
2023-05-25T19:28:58.326Z,5.00
2023-05-25T19:31:26.917Z,5.85
2023-05-25T19:33:54.637Z,5.25
2023-05-25T19:36:22.758Z,5.47
2023-05-25T19:38:50.718Z,4.90
2023-05-25T19:41:18.302Z,4.85
2023-05-25T19:43:45.883Z,5.32
2023-05-25T19:46:13.805Z,5.37
2023-05-25T19:48:41.673Z,5.03
2023-05-25T19:51:09.380Z,4.82
2023-05-25T19:53:37.273Z,5.82
2023-05-25T19:56:05.027Z,5.30
2023-05-25T19:58:33.830Z,5.22
2023-05-25T20:01:01.857Z,4.53
2023-05-25T20:03:29.863Z,4.90
2023-05-25T20:05:58.036Z,5.12
2023-05-25T20:08:27.511Z,4.90
2023-05-25T20:10:55.741Z,5.10
2023-05-25T20:13:23.499Z,4.90
2023-05-25T20:15:51.061Z,5.20
2023-05-25T20:18:19.179Z,5.12
2023-05-25T20:20:47.009Z,4.85
2023-05-25T20:23:14.747Z,4.60
2023-05-25T20:25:42.770Z,4.80
2023-05-25T20:28:10.454Z,5.25
2023-05-25T20:30:37.956Z,5.53
2023-05-25T20:33:07.389Z,5.65
2023-05-25T20:35:37.012Z,5.47
2023-05-25T20:38:04.877Z,5.30
2023-05-25T20:40:32.839Z,5.12
2023-05-25T20:43:00.550Z,5.50
2023-05-25T20:45:28.070Z,5.60
2023-05-25T20:48:03.827Z,5.03
2023-05-25T20:50:31.690Z,5.03
2023-05-25T20:52:59.738Z,5.05
2023-05-25T20:55:27.438Z,5.32
2023-05-25T20:57:56.683Z,4.78
2023-05-25T21:00:24.594Z,4.60
2023-05-25T21:02:52.235Z,4.50
2023-05-25T21:05:19.795Z,4.75
2023-05-25T21:07:47.665Z,5.28
2023-05-25T21:10:15.192Z,4.62
2023-05-25T21:12:42.828Z,5.20
2023-05-25T21:15:10.791Z,4.90
2023-05-25T21:17:38.338Z,4.68
2023-05-25T21:20:07.896Z,5.15
2023-05-25T21:22:36.004Z,5.00
2023-05-25T21:25:04.945Z,4.60
2023-05-25T21:27:32.513Z,4.87
2023-05-25T21:30:00.714Z,4.85
2023-05-25T21:32:28.402Z,4.45
2023-05-25T21:34:56.213Z,4.95
2023-05-25T21:37:24.847Z,4.65
2023-05-25T21:39:52.417Z,4.87
2023-05-25T21:42:19.983Z,5.85
2023-05-25T21:44:47.818Z,4.68
2023-05-25T21:47:15.755Z,5.15
2023-05-25T21:49:43.401Z,5.72
2023-05-25T21:52:19.509Z,5.40
2023-05-25T21:54:47.065Z,5.30
2023-05-25T21:57:14.719Z,5.82
2023-05-25T21:59:42.628Z,5.62
2023-05-25T22:02:10.155Z,6.20
2023-05-25T22:04:38.023Z,5.50
2023-05-25T22:07:05.540Z,5.80
2023-05-25T22:09:33.113Z,5.50
2023-05-25T22:12:02.242Z,5.80
2023-05-25T22:14:29.773Z,5.70
2023-05-25T22:16:57.468Z,5.47
2023-05-25T22:19:25.394Z,5.47
2023-05-25T22:21:53.561Z,6.03
2023-05-25T22:24:21.241Z,5.95
2023-05-25T22:26:49.147Z,6.25
2023-05-25T22:29:16.717Z,6.03
2023-05-25T22:31:44.320Z,6.35
2023-05-25T22:34:12.138Z,6.62
2023-05-25T22:36:39.708Z,6.50
2023-05-25T22:39:07.230Z,5.35
2023-05-25T22:41:35.097Z,6.10
2023-05-25T22:44:02.743Z,5.90
2023-05-25T22:46:30.446Z,6.53
2023-05-25T22:48:58.308Z,6.40
2023-05-25T22:51:25.945Z,5.87
2023-05-25T22:53:53.550Z,6.30
2023-05-25T22:56:22.774Z,6.15
2023-05-25T22:58:50.437Z,6.28
2023-05-25T23:01:18.112Z,5.85
2023-05-25T23:03:46.033Z,6.28
2023-05-25T23:06:13.735Z,6.50
2023-05-25T23:08:41.466Z,6.47
2023-05-25T23:11:09.319Z,6.47
2023-05-25T23:13:37.018Z,6.35
2023-05-25T23:16:05.360Z,6.95
2023-05-25T23:18:33.237Z,5.83
2023-05-25T23:21:00.992Z,6.05
2023-05-25T23:23:28.599Z,6.35
2023-05-25T23:25:57.548Z,6.55
2023-05-25T23:28:25.089Z,6.60
2023-05-25T23:30:52.751Z,6.20
2023-05-25T23:33:20.663Z,5.90
2023-05-25T23:35:48.409Z,5.95
2023-05-25T23:38:16.217Z,6.45
2023-05-25T23:40:44.425Z,6.37
2023-05-25T23:43:12.910Z,6.70
2023-05-25T23:45:40.549Z,6.50
2023-05-25T23:48:08.601Z,6.25
2023-05-25T23:50:36.276Z,6.25
2023-05-25T23:53:03.791Z,5.97
2023-05-25T23:55:31.665Z,6.63
2023-05-25T23:57:59.222Z,6.30
